sensor_id;sensor_type;location;lat;lon;timestamp;P1;durP1;ratioP1;P2;durP2;ratioP2
22778;SDS011;11556;51.194;3.800;2023-06-14T00:00:20;7.85;;;4.25;;
22778;SDS011;11556;51.194;3.800;2023-06-14T00:02:45;4.82;;;3.92;;
22778;SDS011;11556;51.194;3.800;2023-06-14T00:05:13;8.32;;;4.53;;
22778;SDS011;11556;51.194;3.800;2023-06-14T00:07:39;5.78;;;4.68;;
22778;SDS011;11556;51.194;3.800;2023-06-14T00:10:10;6.88;;;4.20;;
22778;SDS011;11556;51.194;3.800;2023-06-14T00:12:36;9.93;;;4.13;;
22778;SDS011;11556;51.194;3.800;2023-06-14T00:15:04;5.90;;;4.35;;
22778;SDS011;11556;51.194;3.800;2023-06-14T00:17:30;6.82;;;4.35;;
22778;SDS011;11556;51.194;3.800;2023-06-14T00:19:57;8.48;;;5.22;;
22778;SDS011;11556;51.194;3.800;2023-06-14T00:22:23;6.55;;;4.80;;
22778;SDS011;11556;51.194;3.800;2023-06-14T00:24:50;7.65;;;4.88;;
22778;SDS011;11556;51.194;3.800;2023-06-14T00:27:16;6.03;;;4.20;;
22778;SDS011;11556;51.194;3.800;2023-06-14T00:29:41;8.45;;;4.85;;
22778;SDS011;11556;51.194;3.800;2023-06-14T00:32:07;8.50;;;4.85;;
22778;SDS011;11556;51.194;3.800;2023-06-14T00:34:33;6.00;;;4.80;;
22778;SDS011;11556;51.194;3.800;2023-06-14T00:36:59;7.70;;;4.70;;
22778;SDS011;11556;51.194;3.800;2023-06-14T00:39:25;8.18;;;4.63;;
22778;SDS011;11556;51.194;3.800;2023-06-14T00:41:51;7.28;;;5.20;;
22778;SDS011;11556;51.194;3.800;2023-06-14T00:44:16;8.98;;;5.13;;
22778;SDS011;11556;51.194;3.800;2023-06-14T00:46:42;6.05;;;4.53;;
22778;SDS011;11556;51.194;3.800;2023-06-14T00:49:10;6.03;;;4.80;;
22778;SDS011;11556;51.194;3.800;2023-06-14T00:51:37;6.30;;;4.35;;
22778;SDS011;11556;51.194;3.800;2023-06-14T00:54:02;7.82;;;4.90;;
22778;SDS011;11556;51.194;3.800;2023-06-14T00:56:28;7.35;;;4.57;;
22778;SDS011;11556;51.194;3.800;2023-06-14T00:58:54;6.80;;;4.35;;
22778;SDS011;11556;51.194;3.800;2023-06-14T01:01:22;7.07;;;4.47;;
22778;SDS011;11556;51.194;3.800;2023-06-14T01:03:49;6.63;;;4.63;;
22778;SDS011;11556;51.194;3.800;2023-06-14T01:12:07;7.55;;;4.38;;
22778;SDS011;11556;51.194;3.800;2023-06-14T01:14:40;6.82;;;4.80;;
22778;SDS011;11556;51.194;3.800;2023-06-14T01:17:07;6.80;;;4.47;;
22778;SDS011;11556;51.194;3.800;2023-06-14T01:19:40;6.90;;;4.53;;
22778;SDS011;11556;51.194;3.800;2023-06-14T01:22:07;8.55;;;4.85;;
22778;SDS011;11556;51.194;3.800;2023-06-14T01:24:34;6.35;;;4.70;;
22778;SDS011;11556;51.194;3.800;2023-06-14T01:26:59;6.88;;;4.88;;
22778;SDS011;11556;51.194;3.800;2023-06-14T01:29:27;7.40;;;4.63;;
22778;SDS011;11556;51.194;3.800;2023-06-14T01:31:58;7.05;;;4.60;;
22778;SDS011;11556;51.194;3.800;2023-06-14T01:34:24;9.68;;;4.63;;
22778;SDS011;11556;51.194;3.800;2023-06-14T01:36:50;7.80;;;4.47;;
22778;SDS011;11556;51.194;3.800;2023-06-14T01:39:19;7.07;;;4.35;;
22778;SDS011;11556;51.194;3.800;2023-06-14T01:41:46;7.47;;;4.32;;
22778;SDS011;11556;51.194;3.800;2023-06-14T01:44:14;5.00;;;4.47;;
22778;SDS011;11556;51.194;3.800;2023-06-14T01:46:42;7.53;;;4.22;;
22778;SDS011;11556;51.194;3.800;2023-06-14T01:49:08;10.45;;;4.60;;
22778;SDS011;11556;51.194;3.800;2023-06-14T01:51:35;6.05;;;4.25;;
22778;SDS011;11556;51.194;3.800;2023-06-14T01:54:01;5.10;;;4.35;;
22778;SDS011;11556;51.194;3.800;2023-06-14T01:56:26;5.18;;;4.47;;
22778;SDS011;11556;51.194;3.800;2023-06-14T01:58:52;5.97;;;4.18;;
22778;SDS011;11556;51.194;3.800;2023-06-14T02:01:18;5.97;;;4.35;;
22778;SDS011;11556;51.194;3.800;2023-06-14T02:03:46;6.15;;;4.50;;
22778;SDS011;11556;51.194;3.800;2023-06-14T02:06:13;7.45;;;4.60;;
22778;SDS011;11556;51.194;3.800;2023-06-14T02:08:40;11.63;;;6.28;;
22778;SDS011;11556;51.194;3.800;2023-06-14T02:11:06;5.60;;;4.40;;
22778;SDS011;11556;51.194;3.800;2023-06-14T02:13:32;9.13;;;4.65;;
22778;SDS011;11556;51.194;3.800;2023-06-14T02:15:59;6.40;;;4.22;;
22778;SDS011;11556;51.194;3.800;2023-06-14T02:18:25;6.38;;;4.35;;
22778;SDS011;11556;51.194;3.800;2023-06-14T02:20:51;5.88;;;4.50;;
22778;SDS011;11556;51.194;3.800;2023-06-14T02:23:17;5.93;;;4.55;;
22778;SDS011;11556;51.194;3.800;2023-06-14T02:25:42;8.80;;;4.70;;
22778;SDS011;11556;51.194;3.800;2023-06-14T02:28:10;6.05;;;4.80;;
22778;SDS011;11556;51.194;3.800;2023-06-14T02:30:35;7.63;;;4.60;;
22778;SDS011;11556;51.194;3.800;2023-06-14T02:33:01;8.88;;;4.75;;
22778;SDS011;11556;51.194;3.800;2023-06-14T02:35:27;6.93;;;4.35;;
22778;SDS011;11556;51.194;3.800;2023-06-14T02:37:52;11.05;;;4.65;;
22778;SDS011;11556;51.194;3.800;2023-06-14T02:40:19;9.50;;;4.65;;
22778;SDS011;11556;51.194;3.800;2023-06-14T02:42:45;8.52;;;4.97;;
22778;SDS011;11556;51.194;3.800;2023-06-14T02:45:11;6.43;;;4.70;;
22778;SDS011;11556;51.194;3.800;2023-06-14T02:47:36;8.05;;;4.50;;
22778;SDS011;11556;51.194;3.800;2023-06-14T02:50:02;6.13;;;4.47;;
22778;SDS011;11556;51.194;3.800;2023-06-14T02:52:28;7.75;;;4.80;;
22778;SDS011;11556;51.194;3.800;2023-06-14T02:54:54;5.47;;;4.50;;
22778;SDS011;11556;51.194;3.800;2023-06-14T02:57:20;5.72;;;4.32;;
22778;SDS011;11556;51.194;3.800;2023-06-14T02:59:46;8.23;;;4.80;;
22778;SDS011;11556;51.194;3.800;2023-06-14T03:02:12;7.03;;;5.03;;
22778;SDS011;11556;51.194;3.800;2023-06-14T03:04:37;8.52;;;4.75;;
22778;SDS011;11556;51.194;3.800;2023-06-14T03:07:03;8.70;;;5.00;;
22778;SDS011;11556;51.194;3.800;2023-06-14T03:09:34;6.38;;;4.78;;
22778;SDS011;11556;51.194;3.800;2023-06-14T03:12:01;8.40;;;5.53;;
22778;SDS011;11556;51.194;3.800;2023-06-14T03:14:28;5.95;;;4.80;;
22778;SDS011;11556;51.194;3.800;2023-06-14T03:16:55;7.95;;;4.65;;
22778;SDS011;11556;51.194;3.800;2023-06-14T03:19:22;5.20;;;4.60;;
22778;SDS011;11556;51.194;3.800;2023-06-14T03:21:48;7.00;;;4.50;;
22778;SDS011;11556;51.194;3.800;2023-06-14T03:24:14;9.85;;;4.80;;
22778;SDS011;11556;51.194;3.800;2023-06-14T03:26:41;6.93;;;4.80;;
22778;SDS011;11556;51.194;3.800;2023-06-14T03:29:07;11.30;;;5.18;;
22778;SDS011;11556;51.194;3.800;2023-06-14T03:31:34;9.50;;;4.88;;
22778;SDS011;11556;51.194;3.800;2023-06-14T03:34:03;8.27;;;4.60;;
22778;SDS011;11556;51.194;3.800;2023-06-14T03:36:28;7.70;;;4.90;;
22778;SDS011;11556;51.194;3.800;2023-06-14T03:38:54;10.82;;;4.90;;
22778;SDS011;11556;51.194;3.800;2023-06-14T03:41:20;8.35;;;4.95;;
22778;SDS011;11556;51.194;3.800;2023-06-14T03:43:45;7.43;;;4.78;;
22778;SDS011;11556;51.194;3.800;2023-06-14T03:46:11;8.73;;;4.40;;
22778;SDS011;11556;51.194;3.800;2023-06-14T03:48:37;6.55;;;4.38;;
22778;SDS011;11556;51.194;3.800;2023-06-14T03:51:03;5.78;;;4.15;;
22778;SDS011;11556;51.194;3.800;2023-06-14T03:53:29;8.20;;;4.68;;
22778;SDS011;11556;51.194;3.800;2023-06-14T03:55:55;9.82;;;4.93;;
22778;SDS011;11556;51.194;3.800;2023-06-14T03:58:22;7.00;;;4.43;;
22778;SDS011;11556;51.194;3.800;2023-06-14T04:00:48;7.30;;;4.35;;
22778;SDS011;11556;51.194;3.800;2023-06-14T04:03:14;6.90;;;4.88;;
22778;SDS011;11556;51.194;3.800;2023-06-14T04:05:40;5.72;;;4.50;;
22778;SDS011;11556;51.194;3.800;2023-06-14T04:08:14;6.40;;;4.30;;
22778;SDS011;11556;51.194;3.800;2023-06-14T04:10:41;10.35;;;5.05;;
22778;SDS011;11556;51.194;3.800;2023-06-14T04:13:06;7.10;;;4.30;;
22778;SDS011;11556;51.194;3.800;2023-06-14T04:15:32;8.07;;;4.65;;
22778;SDS011;11556;51.194;3.800;2023-06-14T04:17:58;8.43;;;4.63;;
22778;SDS011;11556;51.194;3.800;2023-06-14T04:20:24;5.80;;;4.90;;
22778;SDS011;11556;51.194;3.800;2023-06-14T04:22:50;10.95;;;5.05;;
22778;SDS011;11556;51.194;3.800;2023-06-14T04:25:17;7.60;;;5.40;;
22778;SDS011;11556;51.194;3.800;2023-06-14T04:27:43;7.35;;;4.95;;
22778;SDS011;11556;51.194;3.800;2023-06-14T04:30:09;7.15;;;4.97;;
22778;SDS011;11556;51.194;3.800;2023-06-14T04:32:35;7.85;;;4.90;;
22778;SDS011;11556;51.194;3.800;2023-06-14T04:35:04;7.30;;;5.30;;
22778;SDS011;11556;51.194;3.800;2023-06-14T04:37:32;6.13;;;4.63;;
22778;SDS011;11556;51.194;3.800;2023-06-14T04:39:58;7.68;;;4.70;;
22778;SDS011;11556;51.194;3.800;2023-06-14T04:42:24;11.88;;;4.72;;
22778;SDS011;11556;51.194;3.800;2023-06-14T04:44:56;7.40;;;4.50;;
22778;SDS011;11556;51.194;3.800;2023-06-14T04:47:22;6.63;;;4.68;;
22778;SDS011;11556;51.194;3.800;2023-06-14T04:49:50;8.15;;;4.78;;
22778;SDS011;11556;51.194;3.800;2023-06-14T04:52:18;9.50;;;4.60;;
22778;SDS011;11556;51.194;3.800;2023-06-14T04:54:45;8.43;;;4.45;;
22778;SDS011;11556;51.194;3.800;2023-06-14T04:57:11;4.88;;;4.35;;
22778;SDS011;11556;51.194;3.800;2023-06-14T04:59:42;6.57;;;4.60;;
22778;SDS011;11556;51.194;3.800;2023-06-14T05:02:09;5.93;;;4.57;;
22778;SDS011;11556;51.194;3.800;2023-06-14T05:04:35;6.40;;;4.45;;
22778;SDS011;11556;51.194;3.800;2023-06-14T05:07:04;7.47;;;4.82;;
22778;SDS011;11556;51.194;3.800;2023-06-14T05:09:34;6.32;;;4.20;;
22778;SDS011;11556;51.194;3.800;2023-06-14T05:12:02;5.20;;;4.15;;
22778;SDS011;11556;51.194;3.800;2023-06-14T05:14:28;5.18;;;4.40;;
22778;SDS011;11556;51.194;3.800;2023-06-14T05:16:54;6.45;;;4.70;;
22778;SDS011;11556;51.194;3.800;2023-06-14T05:19:20;10.30;;;4.57;;
22778;SDS011;11556;51.194;3.800;2023-06-14T05:21:46;6.60;;;4.47;;
22778;SDS011;11556;51.194;3.800;2023-06-14T05:24:12;6.80;;;4.65;;
22778;SDS011;11556;51.194;3.800;2023-06-14T05:26:38;5.03;;;3.92;;
22778;SDS011;11556;51.194;3.800;2023-06-14T05:29:04;8.85;;;4.63;;
22778;SDS011;11556;51.194;3.800;2023-06-14T05:31:30;5.43;;;4.18;;
22778;SDS011;11556;51.194;3.800;2023-06-14T05:33:56;6.13;;;4.20;;
22778;SDS011;11556;51.194;3.800;2023-06-14T05:36:22;8.02;;;4.30;;
22778;SDS011;11556;51.194;3.800;2023-06-14T05:38:47;6.32;;;4.78;;
22778;SDS011;11556;51.194;3.800;2023-06-14T05:41:13;5.13;;;4.38;;
22778;SDS011;11556;51.194;3.800;2023-06-14T05:43:39;5.47;;;4.50;;
22778;SDS011;11556;51.194;3.800;2023-06-14T05:46:05;7.45;;;4.40;;
22778;SDS011;11556;51.194;3.800;2023-06-14T05:48:30;9.07;;;4.78;;
22778;SDS011;11556;51.194;3.800;2023-06-14T05:50:56;4.97;;;4.47;;
22778;SDS011;11556;51.194;3.800;2023-06-14T05:53:22;7.65;;;4.57;;
22778;SDS011;11556;51.194;3.800;2023-06-14T05:55:48;4.78;;;4.20;;
22778;SDS011;11556;51.194;3.800;2023-06-14T05:58:16;8.10;;;4.30;;
22778;SDS011;11556;51.194;3.800;2023-06-14T06:00:42;6.45;;;4.72;;
22778;SDS011;11556;51.194;3.800;2023-06-14T06:03:08;8.20;;;4.80;;
22778;SDS011;11556;51.194;3.800;2023-06-14T06:05:34;8.85;;;5.20;;
22778;SDS011;11556;51.194;3.800;2023-06-14T06:07:59;5.53;;;4.65;;
22778;SDS011;11556;51.194;3.800;2023-06-14T06:10:25;7.75;;;5.40;;
22778;SDS011;11556;51.194;3.800;2023-06-14T06:12:51;8.93;;;4.68;;
22778;SDS011;11556;51.194;3.800;2023-06-14T06:15:17;5.47;;;4.35;;
22778;SDS011;11556;51.194;3.800;2023-06-14T06:17:43;5.75;;;4.90;;
22778;SDS011;11556;51.194;3.800;2023-06-14T06:20:09;8.73;;;5.43;;
22778;SDS011;11556;51.194;3.800;2023-06-14T06:22:36;8.15;;;5.10;;
22778;SDS011;11556;51.194;3.800;2023-06-14T06:25:02;7.53;;;5.35;;
22778;SDS011;11556;51.194;3.800;2023-06-14T06:27:28;6.97;;;5.03;;
22778;SDS011;11556;51.194;3.800;2023-06-14T06:29:53;7.25;;;4.97;;
22778;SDS011;11556;51.194;3.800;2023-06-14T06:32:21;9.15;;;5.13;;
22778;SDS011;11556;51.194;3.800;2023-06-14T06:34:47;9.55;;;5.50;;
22778;SDS011;11556;51.194;3.800;2023-06-14T06:37:13;9.95;;;5.22;;
22778;SDS011;11556;51.194;3.800;2023-06-14T06:39:38;6.70;;;5.10;;
22778;SDS011;11556;51.194;3.800;2023-06-14T06:42:04;7.68;;;5.28;;
22778;SDS011;11556;51.194;3.800;2023-06-14T06:44:30;8.15;;;5.50;;
22778;SDS011;11556;51.194;3.800;2023-06-14T06:46:57;8.82;;;5.28;;
22778;SDS011;11556;51.194;3.800;2023-06-14T06:49:22;9.48;;;5.22;;
22778;SDS011;11556;51.194;3.800;2023-06-14T06:52:01;10.13;;;5.57;;
22778;SDS011;11556;51.194;3.800;2023-06-14T06:54:28;11.38;;;5.50;;
22778;SDS011;11556;51.194;3.800;2023-06-14T06:56:54;5.72;;;5.10;;
22778;SDS011;11556;51.194;3.800;2023-06-14T06:59:20;8.35;;;5.10;;
22778;SDS011;11556;51.194;3.800;2023-06-14T07:01:46;10.70;;;5.55;;
22778;SDS011;11556;51.194;3.800;2023-06-14T07:04:12;10.35;;;5.47;;
22778;SDS011;11556;51.194;3.800;2023-06-14T07:06:37;8.57;;;5.85;;
22778;SDS011;11556;51.194;3.800;2023-06-14T07:09:04;7.07;;;5.68;;
22778;SDS011;11556;51.194;3.800;2023-06-14T07:11:33;13.23;;;5.68;;
22778;SDS011;11556;51.194;3.800;2023-06-14T07:13:59;9.35;;;5.25;;
22778;SDS011;11556;51.194;3.800;2023-06-14T07:16:24;8.02;;;5.65;;
22778;SDS011;11556;51.194;3.800;2023-06-14T07:18:51;8.52;;;5.97;;
22778;SDS011;11556;51.194;3.800;2023-06-14T07:21:17;10.30;;;5.90;;
22778;SDS011;11556;51.194;3.800;2023-06-14T07:23:43;12.30;;;6.25;;
22778;SDS011;11556;51.194;3.800;2023-06-14T07:26:08;11.57;;;5.40;;
22778;SDS011;11556;51.194;3.800;2023-06-14T07:28:34;10.55;;;6.40;;
22778;SDS011;11556;51.194;3.800;2023-06-14T07:31:00;14.43;;;6.90;;
22778;SDS011;11556;51.194;3.800;2023-06-14T07:33:26;9.95;;;5.95;;
22778;SDS011;11556;51.194;3.800;2023-06-14T07:35:51;9.95;;;6.40;;
22778;SDS011;11556;51.194;3.800;2023-06-14T07:38:18;16.00;;;6.35;;
22778;SDS011;11556;51.194;3.800;2023-06-14T07:40:43;10.90;;;6.03;;
22778;SDS011;11556;51.194;3.800;2023-06-14T07:43:09;13.10;;;6.55;;
22778;SDS011;11556;51.194;3.800;2023-06-14T07:45:34;8.57;;;5.78;;
22778;SDS011;11556;51.194;3.800;2023-06-14T07:48:01;8.32;;;6.00;;
22778;SDS011;11556;51.194;3.800;2023-06-14T07:50:27;10.38;;;6.22;;
22778;SDS011;11556;51.194;3.800;2023-06-14T07:52:52;9.23;;;5.80;;
22778;SDS011;11556;51.194;3.800;2023-06-14T07:55:18;10.93;;;5.82;;
22778;SDS011;11556;51.194;3.800;2023-06-14T07:57:44;7.65;;;5.95;;
22778;SDS011;11556;51.194;3.800;2023-06-14T08:00:09;12.63;;;6.32;;
22778;SDS011;11556;51.194;3.800;2023-06-14T08:02:40;7.82;;;5.22;;
22778;SDS011;11556;51.194;3.800;2023-06-14T08:05:06;7.22;;;5.50;;
22778;SDS011;11556;51.194;3.800;2023-06-14T08:07:33;12.48;;;6.15;;
22778;SDS011;11556;51.194;3.800;2023-06-14T08:09:59;8.27;;;6.25;;
22778;SDS011;11556;51.194;3.800;2023-06-14T08:12:25;6.72;;;5.60;;
22778;SDS011;11556;51.194;3.800;2023-06-14T08:14:51;10.48;;;6.10;;
22778;SDS011;11556;51.194;3.800;2023-06-14T08:17:17;7.35;;;5.82;;
22778;SDS011;11556;51.194;3.800;2023-06-14T08:19:42;9.07;;;5.95;;
22778;SDS011;11556;51.194;3.800;2023-06-14T08:22:08;6.82;;;5.53;;
22778;SDS011;11556;51.194;3.800;2023-06-14T08:24:36;9.70;;;6.05;;
22778;SDS011;11556;51.194;3.800;2023-06-14T08:27:02;10.93;;;6.18;;
22778;SDS011;11556;51.194;3.800;2023-06-14T08:29:28;8.52;;;6.03;;
22778;SDS011;11556;51.194;3.800;2023-06-14T08:31:55;9.15;;;6.07;;
22778;SDS011;11556;51.194;3.800;2023-06-14T08:34:21;6.20;;;5.53;;
22778;SDS011;11556;51.194;3.800;2023-06-14T08:36:48;7.10;;;5.28;;
22778;SDS011;11556;51.194;3.800;2023-06-14T08:39:17;8.25;;;6.20;;
22778;SDS011;11556;51.194;3.800;2023-06-14T08:41:43;7.80;;;5.82;;
22778;SDS011;11556;51.194;3.800;2023-06-14T08:44:12;11.13;;;5.35;;
22778;SDS011;11556;51.194;3.800;2023-06-14T08:46:38;10.30;;;5.57;;
22778;SDS011;11556;51.194;3.800;2023-06-14T08:49:04;9.05;;;5.50;;
22778;SDS011;11556;51.194;3.800;2023-06-14T08:51:31;9.55;;;5.32;;
22778;SDS011;11556;51.194;3.800;2023-06-14T08:54:01;9.38;;;5.22;;
22778;SDS011;11556;51.194;3.800;2023-06-14T08:56:29;6.10;;;4.93;;
22778;SDS011;11556;51.194;3.800;2023-06-14T08:58:59;4.90;;;4.28;;
22778;SDS011;11556;51.194;3.800;2023-06-14T09:01:30;5.85;;;4.40;;
22778;SDS011;11556;51.194;3.800;2023-06-14T09:03:59;4.55;;;4.05;;
22778;SDS011;11556;51.194;3.800;2023-06-14T09:06:25;6.20;;;4.50;;
22778;SDS011;11556;51.194;3.800;2023-06-14T09:08:53;7.00;;;4.90;;
22778;SDS011;11556;51.194;3.800;2023-06-14T09:11:22;7.75;;;4.85;;
22778;SDS011;11556;51.194;3.800;2023-06-14T09:13:48;5.55;;;4.35;;
22778;SDS011;11556;51.194;3.800;2023-06-14T09:16:14;5.88;;;3.80;;
22778;SDS011;11556;51.194;3.800;2023-06-14T09:18:41;7.35;;;4.07;;
22778;SDS011;11556;51.194;3.800;2023-06-14T09:21:12;8.48;;;4.50;;
22778;SDS011;11556;51.194;3.800;2023-06-14T09:23:39;5.30;;;3.80;;
22778;SDS011;11556;51.194;3.800;2023-06-14T09:26:19;5.13;;;3.97;;
22778;SDS011;11556;51.194;3.800;2023-06-14T09:28:45;4.28;;;3.78;;
22778;SDS011;11556;51.194;3.800;2023-06-14T09:31:12;4.70;;;4.20;;
22778;SDS011;11556;51.194;3.800;2023-06-14T09:33:41;7.07;;;3.83;;
22778;SDS011;11556;51.194;3.800;2023-06-14T09:36:12;5.43;;;4.10;;
22778;SDS011;11556;51.194;3.800;2023-06-14T09:41:31;7.55;;;3.83;;
22778;SDS011;11556;51.194;3.800;2023-06-14T09:44:00;4.63;;;3.97;;
22778;SDS011;11556;51.194;3.800;2023-06-14T09:46:29;3.67;;;3.15;;
22778;SDS011;11556;51.194;3.800;2023-06-14T09:48:58;4.50;;;3.42;;
22778;SDS011;11556;51.194;3.800;2023-06-14T09:51:25;5.03;;;3.85;;
22778;SDS011;11556;51.194;3.800;2023-06-14T09:53:52;4.85;;;3.20;;
22778;SDS011;11556;51.194;3.800;2023-06-14T09:56:38;7.78;;;3.42;;
22778;SDS011;11556;51.194;3.800;2023-06-14T09:59:09;8.02;;;3.88;;
22778;SDS011;11556;51.194;3.800;2023-06-14T10:01:41;7.57;;;3.63;;
22778;SDS011;11556;51.194;3.800;2023-06-14T10:04:07;6.28;;;3.42;;
22778;SDS011;11556;51.194;3.800;2023-06-14T10:06:45;4.63;;;3.50;;
22778;SDS011;11556;51.194;3.800;2023-06-14T10:09:11;6.53;;;3.90;;
22778;SDS011;11556;51.194;3.800;2023-06-14T10:11:37;4.15;;;3.70;;
22778;SDS011;11556;51.194;3.800;2023-06-14T10:14:08;4.38;;;3.42;;
22778;SDS011;11556;51.194;3.800;2023-06-14T10:24:33;6.93;;;4.05;;
22778;SDS011;11556;51.194;3.800;2023-06-14T10:27:09;5.60;;;3.50;;
22778;SDS011;11556;51.194;3.800;2023-06-14T10:32:20;11.45;;;4.35;;
22778;SDS011;11556;51.194;3.800;2023-06-14T10:34:51;9.00;;;4.70;;
22778;SDS011;11556;51.194;3.800;2023-06-14T10:37:24;6.07;;;3.90;;
22778;SDS011;11556;51.194;3.800;2023-06-14T10:39:50;4.40;;;4.00;;
22778;SDS011;11556;51.194;3.800;2023-06-14T10:42:16;4.97;;;4.00;;
22778;SDS011;11556;51.194;3.800;2023-06-14T10:44:42;5.80;;;3.83;;
22778;SDS011;11556;51.194;3.800;2023-06-14T10:50:07;5.13;;;3.83;;
22778;SDS011;11556;51.194;3.800;2023-06-14T10:52:39;4.95;;;4.13;;
22778;SDS011;11556;51.194;3.800;2023-06-14T10:55:13;6.97;;;4.00;;
22778;SDS011;11556;51.194;3.800;2023-06-14T11:00:07;5.50;;;3.90;;
22778;SDS011;11556;51.194;3.800;2023-06-14T11:05:10;5.30;;;3.47;;
22778;SDS011;11556;51.194;3.800;2023-06-14T11:10:30;4.20;;;3.80;;
22778;SDS011;11556;51.194;3.800;2023-06-14T11:13:08;4.85;;;3.85;;
22778;SDS011;11556;51.194;3.800;2023-06-14T11:15:38;4.43;;;4.00;;
22778;SDS011;11556;51.194;3.800;2023-06-14T11:18:08;8.07;;;3.97;;
22778;SDS011;11556;51.194;3.800;2023-06-14T11:20:37;3.88;;;3.47;;
22778;SDS011;11556;51.194;3.800;2023-06-14T11:23:03;7.20;;;3.90;;
22778;SDS011;11556;51.194;3.800;2023-06-14T11:25:29;6.18;;;3.83;;
22778;SDS011;11556;51.194;3.800;2023-06-14T11:27:56;6.82;;;4.00;;
22778;SDS011;11556;51.194;3.800;2023-06-14T11:30:22;5.88;;;4.18;;
22778;SDS011;11556;51.194;3.800;2023-06-14T11:32:48;4.60;;;4.07;;
22778;SDS011;11556;51.194;3.800;2023-06-14T11:35:15;6.80;;;4.10;;
22778;SDS011;11556;51.194;3.800;2023-06-14T11:37:42;4.18;;;3.33;;
22778;SDS011;11556;51.194;3.800;2023-06-14T11:40:09;6.50;;;4.30;;
22778;SDS011;11556;51.194;3.800;2023-06-14T11:42:36;6.00;;;3.90;;
22778;SDS011;11556;51.194;3.800;2023-06-14T11:45:03;6.90;;;3.88;;
22778;SDS011;11556;51.194;3.800;2023-06-14T11:47:32;4.90;;;3.60;;
22778;SDS011;11556;51.194;3.800;2023-06-14T11:49:59;5.70;;;3.97;;
22778;SDS011;11556;51.194;3.800;2023-06-14T11:52:25;9.65;;;4.28;;
22778;SDS011;11556;51.194;3.800;2023-06-14T11:54:51;5.68;;;3.65;;
22778;SDS011;11556;51.194;3.800;2023-06-14T11:57:18;6.15;;;3.95;;
22778;SDS011;11556;51.194;3.800;2023-06-14T11:59:44;4.88;;;4.10;;
22778;SDS011;11556;51.194;3.800;2023-06-14T12:02:16;7.38;;;3.63;;
22778;SDS011;11556;51.194;3.800;2023-06-14T12:04:43;6.40;;;3.60;;
22778;SDS011;11556;51.194;3.800;2023-06-14T12:07:12;3.70;;;3.40;;
22778;SDS011;11556;51.194;3.800;2023-06-14T12:10:04;6.20;;;4.77;;
22778;SDS011;11556;51.194;3.800;2023-06-14T12:12:34;6.45;;;3.60;;
22778;SDS011;11556;51.194;3.800;2023-06-14T12:15:04;3.85;;;3.35;;
22778;SDS011;11556;51.194;3.800;2023-06-14T12:17:34;7.43;;;3.42;;
22778;SDS011;11556;51.194;3.800;2023-06-14T12:20:19;5.30;;;3.35;;
22778;SDS011;11556;51.194;3.800;2023-06-14T12:22:56;4.35;;;3.50;;
22778;SDS011;11556;51.194;3.800;2023-06-14T12:25:27;4.28;;;3.40;;
22778;SDS011;11556;51.194;3.800;2023-06-14T12:27:56;4.25;;;3.65;;
22778;SDS011;11556;51.194;3.800;2023-06-14T12:30:22;5.85;;;3.28;;
22778;SDS011;11556;51.194;3.800;2023-06-14T12:32:47;8.25;;;3.58;;
22778;SDS011;11556;51.194;3.800;2023-06-14T12:35:13;6.07;;;3.30;;
22778;SDS011;11556;51.194;3.800;2023-06-14T12:37:40;4.00;;;3.70;;
22778;SDS011;11556;51.194;3.800;2023-06-14T12:40:05;3.95;;;3.60;;
22778;SDS011;11556;51.194;3.800;2023-06-14T12:42:32;9.07;;;3.92;;
22778;SDS011;11556;51.194;3.800;2023-06-14T12:44:59;5.78;;;4.00;;
22778;SDS011;11556;51.194;3.800;2023-06-14T12:47:25;7.60;;;3.85;;
22778;SDS011;11556;51.194;3.800;2023-06-14T12:49:50;4.82;;;3.95;;
22778;SDS011;11556;51.194;3.800;2023-06-14T12:52:16;4.30;;;3.55;;
22778;SDS011;11556;51.194;3.800;2023-06-14T12:54:42;3.47;;;3.17;;
22778;SDS011;11556;51.194;3.800;2023-06-14T12:57:07;7.35;;;3.53;;
22778;SDS011;11556;51.194;3.800;2023-06-14T12:59:33;8.65;;;3.90;;
22778;SDS011;11556;51.194;3.800;2023-06-14T13:02:00;5.45;;;3.47;;
22778;SDS011;11556;51.194;3.800;2023-06-14T13:04:35;4.32;;;3.88;;
22778;SDS011;11556;51.194;3.800;2023-06-14T13:07:01;5.07;;;3.28;;
22778;SDS011;11556;51.194;3.800;2023-06-14T13:09:27;5.97;;;3.10;;
22778;SDS011;11556;51.194;3.800;2023-06-14T13:11:52;7.28;;;3.38;;
22778;SDS011;11556;51.194;3.800;2023-06-14T13:14:18;4.40;;;3.10;;
22778;SDS011;11556;51.194;3.800;2023-06-14T13:16:43;5.03;;;3.45;;
22778;SDS011;11556;51.194;3.800;2023-06-14T13:19:09;4.55;;;3.70;;
22778;SDS011;11556;51.194;3.800;2023-06-14T13:21:35;6.10;;;3.00;;
22778;SDS011;11556;51.194;3.800;2023-06-14T13:24:00;9.02;;;3.05;;
22778;SDS011;11556;51.194;3.800;2023-06-14T13:26:26;5.57;;;3.50;;
22778;SDS011;11556;51.194;3.800;2023-06-14T13:28:52;8.48;;;2.88;;
22778;SDS011;11556;51.194;3.800;2023-06-14T13:31:17;3.45;;;2.90;;
22778;SDS011;11556;51.194;3.800;2023-06-14T13:33:43;4.95;;;3.13;;
22778;SDS011;11556;51.194;3.800;2023-06-14T13:36:08;5.25;;;2.60;;
22778;SDS011;11556;51.194;3.800;2023-06-14T13:38:35;6.05;;;2.80;;
22778;SDS011;11556;51.194;3.800;2023-06-14T13:41:00;4.97;;;2.60;;
22778;SDS011;11556;51.194;3.800;2023-06-14T13:43:26;6.38;;;3.10;;
22778;SDS011;11556;51.194;3.800;2023-06-14T13:45:52;6.00;;;2.90;;
22778;SDS011;11556;51.194;3.800;2023-06-14T13:48:17;9.15;;;3.30;;
22778;SDS011;11556;51.194;3.800;2023-06-14T13:50:43;8.02;;;2.97;;
22778;SDS011;11556;51.194;3.800;2023-06-14T13:53:09;3.78;;;2.75;;
22778;SDS011;11556;51.194;3.800;2023-06-14T13:55:35;2.72;;;2.50;;
22778;SDS011;11556;51.194;3.800;2023-06-14T13:58:00;4.60;;;2.50;;
22778;SDS011;11556;51.194;3.800;2023-06-14T14:00:26;4.70;;;2.72;;
22778;SDS011;11556;51.194;3.800;2023-06-14T14:02:52;4.30;;;2.63;;
22778;SDS011;11556;51.194;3.800;2023-06-14T14:05:17;5.53;;;2.70;;
22778;SDS011;11556;51.194;3.800;2023-06-14T14:07:43;2.88;;;2.65;;
22778;SDS011;11556;51.194;3.800;2023-06-14T14:10:09;4.30;;;2.85;;
22778;SDS011;11556;51.194;3.800;2023-06-14T14:12:38;5.40;;;2.70;;
22778;SDS011;11556;51.194;3.800;2023-06-14T14:15:04;2.65;;;2.45;;
22778;SDS011;11556;51.194;3.800;2023-06-14T14:17:36;4.35;;;2.42;;
22778;SDS011;11556;51.194;3.800;2023-06-14T14:20:02;3.95;;;2.55;;
22778;SDS011;11556;51.194;3.800;2023-06-14T14:22:28;3.10;;;2.50;;
22778;SDS011;11556;51.194;3.800;2023-06-14T14:24:54;2.53;;;2.25;;
22778;SDS011;11556;51.194;3.800;2023-06-14T14:27:19;4.13;;;2.42;;
22778;SDS011;11556;51.194;3.800;2023-06-14T14:29:45;4.55;;;2.70;;
22778;SDS011;11556;51.194;3.800;2023-06-14T14:32:11;3.90;;;2.67;;
22778;SDS011;11556;51.194;3.800;2023-06-14T14:34:39;4.20;;;2.50;;
22778;SDS011;11556;51.194;3.800;2023-06-14T14:37:05;3.65;;;2.38;;
22778;SDS011;11556;51.194;3.800;2023-06-14T14:39:30;4.53;;;2.05;;
22778;SDS011;11556;51.194;3.800;2023-06-14T14:41:56;3.22;;;2.10;;
22778;SDS011;11556;51.194;3.800;2023-06-14T14:44:22;2.13;;;1.85;;
22778;SDS011;11556;51.194;3.800;2023-06-14T14:46:47;2.55;;;1.75;;
22778;SDS011;11556;51.194;3.800;2023-06-14T14:49:13;2.60;;;1.83;;
22778;SDS011;11556;51.194;3.800;2023-06-14T14:51:38;2.78;;;1.30;;
22778;SDS011;11556;51.194;3.800;2023-06-14T14:54:05;4.32;;;1.73;;
22778;SDS011;11556;51.194;3.800;2023-06-14T14:56:31;2.67;;;1.33;;
22778;SDS011;11556;51.194;3.800;2023-06-14T14:58:57;1.45;;;1.23;;
22778;SDS011;11556;51.194;3.800;2023-06-14T15:01:22;2.47;;;1.40;;
22778;SDS011;11556;51.194;3.800;2023-06-14T15:03:48;1.38;;;1.23;;
22778;SDS011;11556;51.194;3.800;2023-06-14T15:06:13;1.20;;;1.10;;
22778;SDS011;11556;51.194;3.800;2023-06-14T15:08:39;3.90;;;1.50;;
22778;SDS011;11556;51.194;3.800;2023-06-14T15:11:05;6.18;;;1.20;;
22778;SDS011;11556;51.194;3.800;2023-06-14T15:13:31;2.22;;;1.50;;